RPLC/CRK METAR and TAF weather

Enter ICAO airport designator
Station Type Date Time Source
RPLC METAR 2020/01/28 11:00 UTC NOAA

RPLC 281100Z 35002KT 7000 SCT020 BKN300 28/21 Q1011 NOSIG RMKA2985


Station Type Date Time Source
RPLC Decoded METAR 2020/01/28 11:00 UTC NOAA

Clarkfield Pampanga International Airport, Philippines (RPLC) 15-11N 120-33E
Jan 28, 2020 - 06:00 AM EST / 2020.01.28 1100 UTC
Wind: from the N (350 degrees) at 2 MPH (2 KT):0
Visibility: 4 mile(s):0
Sky conditions: mostly cloudy
Temperature: 82 F (28 C)
Dew Point: 69 F (21 C)
Relative Humidity: 65%
Pressure (altimeter): 29.85 in. Hg (1011 hPa)
ob: RPLC 281100Z 35002KT 7000 SCT020 BKN300 28/21 Q1011 NOSIG RMKA2985
cycle: 11

Station Type Date Time Source
RPLC TAF 2020/01/28 12:03 UTC NOAA

TAF RPLC 281100Z 2812/2918 34006KT 9999 FEW020 BKN300 TX32/2906Z TN23/2822Z
TEMPO 2812/2818 17008KT SCT020 BKN100

Example: see airport list